Time;durP1;ratioP1;P1;durP2;ratioP2;P2;SDS_P1;SDS_P2;PMS_P1;PMS_P2;Temp;Humidity;BMP_temperature;BMP_pressure;BME280_temperature;BME280_humidity;BME280_pressure;Samples;Min_cycle;Max_cycle;Signal;HPM_P1;HPM_P2
2023/05/30 00:01:20;;;;;;;10.18;5.40;;;14.20;99.90;;;;;;5068511;28;20059;-73
2023/05/30 00:03:48;;;;;;;11.15;5.10;;;14.20;99.90;;;;;;5067004;28;20062;-72
2023/05/30 00:06:14;;;;;;;11.80;5.35;;;14.20;99.90;;;;;;5068674;28;20024;-72
2023/05/30 00:08:41;;;;;;;10.35;5.07;;;14.10;99.90;;;;;;5067662;28;20040;-72
2023/05/30 00:11:07;;;;;;;10.40;5.43;;;13.90;99.90;;;;;;5067472;28;20469;-73
2023/05/30 00:13:33;;;;;;;11.25;5.85;;;13.80;99.90;;;;;;5055978;28;20040;-72
2023/05/30 00:16:00;;;;;;;15.50;6.03;;;13.70;99.90;;;;;;5056147;28;20067;-72
2023/05/30 00:18:34;;;;;;;12.95;5.50;;;13.70;99.90;;;;;;5050547;28;20032;-73
2023/05/30 00:21:06;;;;;;;10.02;5.03;;;13.50;99.90;;;;;;5056460;28;20029;-72
2023/05/30 00:23:35;;;;;;;10.07;5.40;;;13.40;99.90;;;;;;5055601;28;20021;-72
2023/05/30 00:26:01;;;;;;;10.05;5.43;;;13.30;99.90;;;;;;5048472;28;20489;-72
2023/05/30 00:28:27;;;;;;;11.77;5.90;;;13.20;99.90;;;;;;5052164;28;20021;-73
2023/05/30 00:30:53;;;;;;;10.77;5.78;;;13.20;99.90;;;;;;5055741;28;20036;-72
2023/05/30 00:33:20;;;;;;;9.52;5.15;;;13.10;99.90;;;;;;5068464;28;20465;-72
2023/05/30 00:35:46;;;;;;;13.55;5.60;;;13.10;99.90;;;;;;5067824;28;20033;-72
2023/05/30 00:38:11;;;;;;;8.82;4.95;;;13.20;99.90;;;;;;5065954;28;20542;-72
2023/05/30 00:40:37;;;;;;;13.32;6.10;;;13.20;99.90;;;;;;5067522;28;20040;-72
2023/05/30 00:43:03;;;;;;;11.82;5.57;;;13.20;99.90;;;;;;5068312;28;20111;-72
2023/05/30 00:45:28;;;;;;;14.57;5.95;;;13.10;99.90;;;;;;5065706;28;20057;-73
2023/05/30 00:47:54;;;;;;;12.18;5.68;;;13.00;99.90;;;;;;5067297;28;20472;-72
2023/05/30 00:50:21;;;;;;;12.23;5.95;;;12.90;99.90;;;;;;5068224;28;20055;-72
2023/05/30 00:52:48;;;;;;;8.27;4.53;;;13.00;99.90;;;;;;5067455;28;20123;-72
2023/05/30 00:55:15;;;;;;;10.90;5.40;;;12.90;99.90;;;;;;5066487;28;20028;-72
2023/05/30 00:57:42;;;;;;;11.63;5.50;;;12.90;99.90;;;;;;5067213;28;20044;-72
2023/05/30 01:00:13;;;;;;;10.48;5.72;;;12.70;99.90;;;;;;5064000;28;20516;-72
2023/05/30 01:02:40;;;;;;;14.07;5.70;;;12.70;99.90;;;;;;5056289;28;20053;-72
2023/05/30 01:05:06;;;;;;;11.02;5.75;;;12.70;99.90;;;;;;5067660;28;20067;-72
2023/05/30 01:07:33;;;;;;;13.10;5.70;;;12.80;99.90;;;;;;5066622;28;20156;-72
2023/05/30 01:10:00;;;;;;;11.68;5.57;;;12.80;99.90;;;;;;5066971;28;20025;-72
2023/05/30 01:13:13;;;;;;;10.25;5.47;;;12.80;99.90;;;;;;5067903;28;20052;-73
2023/05/30 01:15:57;;;;;;;11.68;6.03;;;12.80;99.90;;;;;;5045073;28;20547;-71
2023/05/30 01:18:31;;;;;;;12.18;5.75;;;12.80;99.90;;;;;;5051210;28;20040;-72
2023/05/30 01:21:11;;;;;;;11.10;5.82;;;12.80;99.90;;;;;;5069676;28;20138;-72
2023/05/30 01:24:07;;;;;;;10.15;5.60;;;12.80;99.90;;;;;;5070128;28;20017;-72
2023/05/30 01:26:59;;;;;;;16.27;5.63;;;12.90;99.90;;;;;;5070812;28;20082;-72
2023/05/30 01:29:26;;;;;;;12.30;6.38;;;13.00;99.90;;;;;;5070671;28;20477;-72
2023/05/30 01:31:53;;;;;;;14.73;6.00;;;13.10;99.90;;;;;;5069042;28;20032;-72
2023/05/30 01:34:20;;;;;;;10.13;5.60;;;13.20;99.90;;;;;;5071415;28;20081;-72
2023/05/30 01:36:45;;;;;;;11.88;5.93;;;13.20;99.90;;;;;;5068192;28;20939;-72
2023/05/30 01:39:11;;;;;;;13.88;5.40;;;13.20;99.90;;;;;;5068750;28;20060;-72
2023/05/30 01:41:52;;;;;;;11.25;5.45;;;13.30;99.90;;;;;;5068901;28;20112;-72
2023/05/30 01:44:36;;;;;;;13.50;6.03;;;13.20;99.90;;;;;;5069951;28;20086;-72
2023/05/30 01:47:17;;;;;;;11.45;5.95;;;13.30;99.90;;;;;;5071168;28;20106;-72
2023/05/30 01:50:01;;;;;;;15.45;6.18;;;13.30;99.90;;;;;;5066416;28;20039;-72
2023/05/30 01:52:31;;;;;;;9.55;5.47;;;13.30;99.90;;;;;;5068377;28;20020;-73
2023/05/30 01:55:02;;;;;;;14.07;6.20;;;13.30;99.90;;;;;;5069794;28;20035;-72
2023/05/30 01:57:29;;;;;;;13.38;5.60;;;13.30;99.90;;;;;;5069941;28;20102;-73
2023/05/30 01:59:58;;;;;;;12.70;6.10;;;13.20;99.90;;;;;;5063765;28;20037;-72
2023/05/30 02:02:24;;;;;;;11.23;5.60;;;13.20;99.90;;;;;;5069522;28;20044;-72
2023/05/30 02:04:50;;;;;;;10.13;5.55;;;13.20;99.90;;;;;;5069933;28;20040;-72
2023/05/30 02:07:15;;;;;;;10.45;5.47;;;13.20;99.90;;;;;;5066819;28;20171;-72
2023/05/30 02:09:41;;;;;;;14.43;6.10;;;13.20;99.90;;;;;;5067473;28;20075;-72
2023/05/30 02:12:08;;;;;;;15.07;6.10;;;13.10;99.90;;;;;;5067681;28;20020;-72
2023/05/30 02:14:33;;;;;;;8.93;5.45;;;12.90;99.90;;;;;;5067986;28;20037;-73
2023/05/30 02:16:59;;;;;;;12.20;5.32;;;12.70;99.90;;;;;;5064153;28;20393;-72
2023/05/30 02:19:25;;;;;;;15.02;6.50;;;12.40;99.90;;;;;;5061139;28;20032;-72
2023/05/30 02:21:51;;;;;;;13.70;6.13;;;12.30;99.90;;;;;;5065574;28;20684;-73
2023/05/30 02:24:16;;;;;;;11.05;5.70;;;12.20;99.90;;;;;;5058137;28;20111;-72
2023/05/30 02:26:42;;;;;;;13.00;6.05;;;12.00;99.90;;;;;;5066466;28;20079;-72
2023/05/30 02:29:08;;;;;;;14.93;6.47;;;12.00;99.90;;;;;;5067770;28;20377;-72
2023/05/30 02:31:33;;;;;;;13.35;6.25;;;11.90;99.90;;;;;;5063303;28;20476;-72
2023/05/30 02:33:59;;;;;;;13.90;6.13;;;11.80;99.90;;;;;;5067440;28;20138;-72
2023/05/30 02:36:24;;;;;;;11.85;6.35;;;11.60;99.90;;;;;;5070463;28;20028;-72
2023/05/30 02:38:50;;;;;;;11.13;5.95;;;11.60;99.90;;;;;;5054915;28;20684;-72
2023/05/30 02:41:16;;;;;;;14.82;5.85;;;11.60;99.90;;;;;;5062309;28;20039;-72
2023/05/30 02:43:42;;;;;;;17.17;6.40;;;11.70;99.90;;;;;;5053665;28;20037;-72
2023/05/30 02:46:08;;;;;;;12.43;6.00;;;11.70;99.90;;;;;;5058883;28;20267;-72
2023/05/30 02:48:34;;;;;;;10.98;5.93;;;11.90;99.90;;;;;;5061261;28;20108;-74
2023/05/30 02:50:59;;;;;;;12.65;5.85;;;11.90;99.90;;;;;;5061406;28;20025;-72
2023/05/30 02:53:25;;;;;;;11.60;6.13;;;12.00;99.90;;;;;;5054540;28;20037;-72
2023/05/30 02:55:50;;;;;;;15.68;6.38;;;11.90;99.90;;;;;;5066395;28;20484;-71
2023/05/30 02:58:16;;;;;;;12.25;6.57;;;11.90;99.90;;;;;;5066016;28;20469;-71
2023/05/30 03:00:42;;;;;;;11.25;5.90;;;11.90;99.90;;;;;;5050029;28;20028;-72
2023/05/30 03:03:08;;;;;;;11.45;5.75;;;12.00;99.90;;;;;;5066621;28;20053;-72
2023/05/30 03:05:34;;;;;;;12.88;6.25;;;11.90;99.90;;;;;;5061400;28;20028;-73
2023/05/30 03:08:01;;;;;;;12.93;6.45;;;11.90;99.90;;;;;;5065315;28;20040;-72
2023/05/30 03:10:26;;;;;;;13.45;6.07;;;11.80;99.90;;;;;;5058314;28;20052;-71
2023/05/30 03:12:52;;;;;;;13.13;6.50;;;11.80;99.90;;;;;;5053618;28;20688;-72
2023/05/30 03:15:20;;;;;;;13.35;6.22;;;11.90;99.90;;;;;;5063584;28;20039;-72
2023/05/30 03:17:46;;;;;;;17.40;5.97;;;11.90;99.90;;;;;;5050700;28;20137;-73
2023/05/30 03:20:12;;;;;;;11.05;5.75;;;12.00;99.90;;;;;;5065491;28;20035;-72
2023/05/30 03:22:38;;;;;;;13.43;6.07;;;12.10;99.90;;;;;;5058373;28;20036;-72
2023/05/30 03:25:05;;;;;;;12.55;6.00;;;12.10;99.90;;;;;;5065476;28;20024;-72
2023/05/30 03:27:31;;;;;;;14.43;6.30;;;12.10;99.90;;;;;;5048480;28;20096;-72
2023/05/30 03:29:56;;;;;;;14.05;6.13;;;12.10;99.90;;;;;;5065625;28;20572;-72
2023/05/30 03:32:22;;;;;;;15.18;6.15;;;12.00;99.90;;;;;;5068396;28;20036;-72
2023/05/30 03:34:48;;;;;;;14.70;6.35;;;11.80;99.90;;;;;;5065821;28;20074;-72
2023/05/30 03:37:14;;;;;;;14.40;6.13;;;11.70;99.90;;;;;;5048985;28;20033;-72
2023/05/30 03:39:40;;;;;;;10.80;6.15;;;11.60;99.90;;;;;;5059049;28;20029;-72
2023/05/30 03:42:06;;;;;;;16.08;6.30;;;11.40;99.90;;;;;;5069004;28;20034;-72
2023/05/30 03:44:32;;;;;;;13.02;6.47;;;11.40;99.90;;;;;;5067827;28;20052;-72
2023/05/30 03:46:57;;;;;;;16.20;7.22;;;11.40;99.90;;;;;;5068073;28;20091;-72
2023/05/30 03:49:23;;;;;;;12.18;6.10;;;11.40;99.90;;;;;;5066775;28;20040;-72
2023/05/30 03:51:49;;;;;;;13.57;6.38;;;11.50;99.90;;;;;;5064814;28;20106;-72
2023/05/30 03:54:14;;;;;;;10.50;6.05;;;11.50;99.90;;;;;;5048399;28;20458;-72
2023/05/30 03:56:40;;;;;;;14.18;6.72;;;11.50;99.90;;;;;;5064518;28;20552;-72
2023/05/30 03:59:07;;;;;;;13.38;6.13;;;11.50;99.90;;;;;;5058642;28;20128;-72
2023/05/30 04:01:33;;;;;;;16.23;6.68;;;11.50;99.90;;;;;;5064608;28;20035;-72
2023/05/30 04:03:59;;;;;;;11.65;6.45;;;11.40;99.90;;;;;;5065763;28;20056;-72
2023/05/30 04:06:24;;;;;;;14.02;6.57;;;11.40;99.90;;;;;;5064150;28;20024;-71
2023/05/30 04:08:51;;;;;;;13.38;6.57;;;11.40;99.90;;;;;;5061524;28;20417;-71
2023/05/30 04:11:16;;;;;;;10.93;5.68;;;11.50;99.90;;;;;;5065398;28;20028;-72
2023/05/30 04:13:42;;;;;;;17.23;6.57;;;11.50;99.90;;;;;;5067122;28;20036;-72
2023/05/30 04:16:08;;;;;;;12.77;6.75;;;11.70;99.90;;;;;;5066446;28;20040;-72
2023/05/30 04:18:36;;;;;;;12.40;5.90;;;11.70;99.90;;;;;;5057137;28;20106;-72
2023/05/30 04:21:02;;;;;;;15.63;7.00;;;11.80;99.90;;;;;;5065619;28;20107;-72
2023/05/30 04:23:27;;;;;;;12.93;6.28;;;11.80;99.90;;;;;;5067251;28;20032;-72
2023/05/30 04:25:54;;;;;;;11.98;5.95;;;11.80;99.90;;;;;;5063046;28;20546;-72
2023/05/30 04:28:21;;;;;;;10.52;5.68;;;11.80;99.90;;;;;;5066146;28;21300;-72
2023/05/30 04:30:50;;;;;;;12.32;6.53;;;11.90;99.90;;;;;;5067044;28;20063;-72
2023/05/30 04:33:16;;;;;;;12.13;6.03;;;11.90;99.90;;;;;;5065997;28;20040;-72
2023/05/30 04:35:43;;;;;;;11.75;5.63;;;11.90;99.90;;;;;;5066978;28;20032;-72
2023/05/30 04:38:09;;;;;;;11.93;6.22;;;12.00;99.90;;;;;;5065679;28;20040;-72
2023/05/30 04:40:36;;;;;;;10.80;6.15;;;12.10;99.90;;;;;;5053572;28;20070;-72
2023/05/30 04:43:02;;;;;;;11.73;6.68;;;12.20;99.90;;;;;;5062378;28;20029;-72
2023/05/30 04:45:29;;;;;;;13.00;6.50;;;12.20;99.90;;;;;;5062701;28;20147;-72
2023/05/30 04:47:55;;;;;;;12.20;5.70;;;12.30;99.90;;;;;;5054774;28;20035;-72
2023/05/30 04:50:24;;;;;;;12.13;6.63;;;12.30;99.90;;;;;;5061030;28;20021;-72
2023/05/30 04:52:50;;;;;;;10.55;5.78;;;12.30;99.90;;;;;;5065182;28;20032;-72
2023/05/30 04:55:17;;;;;;;16.63;6.70;;;12.30;99.90;;;;;;5071249;28;20586;-72
2023/05/30 04:57:43;;;;;;;15.23;6.28;;;12.30;99.90;;;;;;5065020;28;20033;-73
2023/05/30 05:00:15;;;;;;;13.82;6.30;;;12.40;99.90;;;;;;5065211;28;20106;-73
2023/05/30 05:02:42;;;;;;;15.45;6.65;;;12.50;99.90;;;;;;5063371;28;20056;-74
2023/05/30 05:05:08;;;;;;;17.50;6.28;;;12.60;99.90;;;;;;5065970;28;20031;-72
2023/05/30 05:07:34;;;;;;;12.98;6.45;;;12.70;99.90;;;;;;5068241;28;20029;-72
2023/05/30 05:10:01;;;;;;;14.52;6.65;;;12.70;99.90;;;;;;5057935;28;20036;-71
2023/05/30 05:12:26;;;;;;;11.65;6.65;;;12.90;99.90;;;;;;5067961;28;20037;-72
2023/05/30 05:14:55;;;;;;;13.23;6.55;;;12.90;99.90;;;;;;5069242;28;20045;-72
2023/05/30 05:17:21;;;;;;;11.57;6.40;;;13.00;99.90;;;;;;5066902;28;20041;-72
2023/05/30 05:19:46;;;;;;;10.80;5.70;;;13.10;99.90;;;;;;5055610;28;20036;-72
2023/05/30 05:22:12;;;;;;;13.95;6.13;;;13.30;99.90;;;;;;5063813;28;20557;-72
2023/05/30 05:24:38;;;;;;;10.93;6.13;;;13.40;99.90;;;;;;5058816;28;20677;-72
2023/05/30 05:27:03;;;;;;;13.48;6.32;;;13.50;99.90;;;;;;5069732;28;20039;-73
2023/05/30 05:29:29;;;;;;;13.35;5.78;;;13.60;99.90;;;;;;5062836;28;20025;-72
2023/05/30 05:31:55;;;;;;;13.63;6.20;;;13.70;99.90;;;;;;5063021;28;20036;-72
2023/05/30 05:34:21;;;;;;;12.30;6.22;;;13.70;99.90;;;;;;5068409;28;20527;-71
2023/05/30 05:36:47;;;;;;;11.80;5.50;;;13.80;99.90;;;;;;5068747;28;20024;-72
2023/05/30 05:39:13;;;;;;;18.02;5.53;;;13.90;99.90;;;;;;5066164;28;20024;-71
2023/05/30 05:41:39;;;;;;;15.63;5.60;;;14.00;99.90;;;;;;5059699;28;20024;-71
2023/05/30 05:44:04;;;;;;;11.65;5.28;;;14.10;99.90;;;;;;5070239;28;20378;-72
2023/05/30 05:46:30;;;;;;;15.50;5.10;;;14.20;99.90;;;;;;5058728;28;20847;-71
2023/05/30 05:48:56;;;;;;;13.48;5.75;;;14.20;99.90;;;;;;5054506;28;20048;-72
2023/05/30 05:51:22;;;;;;;15.93;5.13;;;14.40;99.90;;;;;;5062482;28;20051;-72
2023/05/30 05:53:47;;;;;;;12.85;5.03;;;14.50;99.90;;;;;;5065340;28;20836;-72
2023/05/30 05:56:13;;;;;;;14.10;5.65;;;14.70;99.90;;;;;;5062722;28;20033;-72
2023/05/30 05:58:38;;;;;;;12.85;5.28;;;14.70;99.90;;;;;;5054708;28;20044;-72
2023/05/30 06:01:04;;;;;;;12.75;5.68;;;14.90;99.90;;;;;;5057705;28;20017;-72
2023/05/30 06:03:30;;;;;;;14.15;5.50;;;15.00;99.90;;;;;;5059587;28;20049;-72
2023/05/30 06:05:56;;;;;;;12.75;5.43;;;15.10;99.90;;;;;;5063866;28;20165;-72
2023/05/30 06:08:22;;;;;;;14.57;5.65;;;15.10;99.90;;;;;;5064185;28;20032;-72
2023/05/30 06:10:48;;;;;;;13.70;5.68;;;15.10;99.90;;;;;;5054750;28;20033;-73
2023/05/30 06:13:15;;;;;;;13.68;6.35;;;15.20;99.90;;;;;;5063082;28;20534;-72
2023/05/30 06:15:40;;;;;;;12.27;5.45;;;15.30;99.90;;;;;;5055203;28;20041;-72
2023/05/30 06:18:06;;;;;;;14.52;5.30;;;15.30;99.90;;;;;;5056557;28;20032;-72
2023/05/30 06:20:32;;;;;;;10.20;5.18;;;15.40;99.90;;;;;;5061627;28;20061;-72
2023/05/30 06:22:57;;;;;;;11.52;5.22;;;15.60;99.90;;;;;;5064199;28;20056;-72
2023/05/30 06:25:25;;;;;;;15.20;5.53;;;15.60;99.90;;;;;;5054589;28;20033;-72
2023/05/30 06:27:52;;;;;;;10.63;5.57;;;15.70;99.90;;;;;;5053839;28;20071;-72
2023/05/30 06:30:18;;;;;;;13.13;5.55;;;15.70;99.90;;;;;;5050566;28;20044;-72
2023/05/30 06:32:43;;;;;;;10.60;5.05;;;16.00;99.90;;;;;;5070242;28;20037;-74
2023/05/30 06:35:10;;;;;;;12.13;5.30;;;16.20;99.90;;;;;;5068191;28;20519;-72
2023/05/30 06:37:35;;;;;;;14.15;5.68;;;16.20;99.90;;;;;;5060202;28;20076;-73
2023/05/30 06:40:02;;;;;;;12.90;5.43;;;16.30;99.90;;;;;;5069372;28;20087;-73
2023/05/30 06:42:28;;;;;;;15.13;6.07;;;16.40;99.90;;;;;;5047097;28;20085;-73
2023/05/30 06:44:53;;;;;;;10.55;5.10;;;16.50;99.90;;;;;;5058125;28;20033;-72
2023/05/30 06:47:19;;;;;;;12.32;5.25;;;16.60;99.90;;;;;;5057570;28;20085;-72
2023/05/30 06:49:45;;;;;;;12.90;4.93;;;16.70;99.90;;;;;;5058638;28;20049;-73
2023/05/30 06:52:10;;;;;;;15.07;5.25;;;16.80;99.90;;;;;;5063092;28;20539;-71
2023/05/30 06:54:36;;;;;;;8.93;4.63;;;16.80;99.90;;;;;;5069768;28;20437;-71
2023/05/30 06:57:04;;;;;;;16.25;5.20;;;16.80;99.90;;;;;;5067385;28;20392;-73
2023/05/30 06:59:30;;;;;;;9.77;5.10;;;16.70;99.90;;;;;;5069556;28;20509;-72
2023/05/30 07:01:56;;;;;;;11.35;5.25;;;16.60;99.90;;;;;;5068797;28;20833;-71
2023/05/30 07:04:23;;;;;;;9.95;4.97;;;16.50;99.90;;;;;;5068560;28;20059;-72
2023/05/30 07:06:49;;;;;;;17.33;5.30;;;16.50;99.90;;;;;;5068168;28;20370;-73
2023/05/30 07:09:15;;;;;;;12.55;5.00;;;16.60;99.90;;;;;;5069564;28;20028;-71
2023/05/30 07:11:41;;;;;;;11.32;4.75;;;16.60;99.90;;;;;;5068212;28;20048;-71
2023/05/30 07:14:06;;;;;;;9.98;4.50;;;16.70;99.90;;;;;;5068429;28;20025;-72
2023/05/30 07:16:32;;;;;;;10.40;4.95;;;17.00;99.90;;;;;;5069437;28;20084;-71
2023/05/30 07:18:58;;;;;;;14.10;5.30;;;17.20;99.90;;;;;;5068556;28;20429;-72
2023/05/30 07:21:26;;;;;;;10.35;4.22;;;17.40;99.90;;;;;;5067698;28;20445;-71
2023/05/30 07:23:52;;;;;;;12.60;4.40;;;17.40;99.90;;;;;;5066839;28;20029;-72
2023/05/30 07:26:18;;;;;;;7.90;4.35;;;17.50;99.90;;;;;;5069197;28;20117;-72
2023/05/30 07:28:43;;;;;;;12.18;4.97;;;17.60;99.90;;;;;;5054531;28;20040;-73
2023/05/30 07:31:09;;;;;;;12.23;4.60;;;17.50;99.90;;;;;;5051218;28;20035;-72
2023/05/30 07:33:35;;;;;;;14.38;4.32;;;17.50;99.90;;;;;;5056275;28;20078;-71
2023/05/30 07:36:00;;;;;;;11.02;5.07;;;17.60;99.90;;;;;;5056477;28;20530;-72
2023/05/30 07:38:26;;;;;;;11.75;4.63;;;17.70;99.90;;;;;;5060625;28;20072;-74
2023/05/30 07:40:52;;;;;;;11.45;4.78;;;17.70;99.90;;;;;;5062130;28;20043;-74
2023/05/30 07:43:17;;;;;;;11.02;4.32;;;17.60;99.90;;;;;;5057427;28;20055;-73
2023/05/30 07:45:43;;;;;;;10.57;4.22;;;17.80;99.90;;;;;;5060283;28;20788;-73
2023/05/30 07:48:09;;;;;;;10.38;4.50;;;17.70;99.90;;;;;;5067182;28;20111;-77
2023/05/30 07:50:34;;;;;;;9.82;4.93;;;17.80;99.90;;;;;;5061606;28;20016;-76
2023/05/30 07:53:00;;;;;;;8.48;4.60;;;18.00;99.90;;;;;;5061482;28;20179;-77
2023/05/30 07:55:26;;;;;;;11.68;4.82;;;18.20;99.90;;;;;;5068885;28;20505;-77
2023/05/30 07:57:52;;;;;;;16.67;4.60;;;18.30;99.90;;;;;;5065095;28;20031;-77
2023/05/30 08:00:18;;;;;;;10.77;4.82;;;18.40;99.90;;;;;;5067201;28;20033;-77
2023/05/30 08:02:43;;;;;;;13.95;4.55;;;18.40;99.90;;;;;;5064744;28;20417;-78
2023/05/30 08:05:09;;;;;;;11.48;4.65;;;18.40;99.90;;;;;;5059411;28;20055;-77
2023/05/30 08:07:35;;;;;;;9.45;4.63;;;18.50;99.90;;;;;;5067444;28;20043;-77
2023/05/30 08:10:01;;;;;;;9.48;4.57;;;18.80;99.90;;;;;;5066049;28;20061;-77
2023/05/30 08:12:29;;;;;;;8.82;4.60;;;18.90;99.90;;;;;;5053245;28;20060;-77
2023/05/30 08:14:56;;;;;;;13.82;4.80;;;18.60;99.90;;;;;;5063195;28;20535;-77
2023/05/30 08:17:26;;;;;;;10.75;4.65;;;18.60;99.90;;;;;;5063242;28;20079;-77
2023/05/30 08:19:53;;;;;;;11.40;4.63;;;18.80;99.90;;;;;;5054273;28;20056;-77
2023/05/30 08:22:23;;;;;;;10.88;4.45;;;18.90;99.90;;;;;;5048311;28;20029;-76
2023/05/30 08:24:59;;;;;;;11.48;4.70;;;19.00;99.90;;;;;;5054225;28;20029;-77
2023/05/30 08:27:25;;;;;;;16.90;5.05;;;19.30;99.90;;;;;;5055546;28;20156;-77
2023/05/30 08:29:50;;;;;;;11.95;4.78;;;19.60;99.90;;;;;;5074943;28;20181;-77
2023/05/30 08:32:17;;;;;;;12.38;4.80;;;19.90;99.80;;;;;;5073052;28;20532;-77
2023/05/30 08:34:46;;;;;;;11.38;4.60;;;19.80;99.60;;;;;;5074871;28;20536;-77
2023/05/30 08:37:12;;;;;;;9.20;4.68;;;19.70;98.80;;;;;;5073060;28;20024;-77
2023/05/30 08:39:38;;;;;;;12.32;5.18;;;19.90;99.60;;;;;;5068613;28;20054;-77
2023/05/30 08:42:05;;;;;;;12.15;4.82;;;20.00;99.20;;;;;;5073842;28;20028;-77
2023/05/30 08:44:31;;;;;;;17.10;4.57;;;19.90;98.60;;;;;;5075041;28;20060;-77
2023/05/30 08:46:57;;;;;;;14.32;5.82;;;20.20;98.60;;;;;;5074138;28;20021;-78
2023/05/30 08:49:24;;;;;;;10.23;4.88;;;20.20;98.20;;;;;;5073581;28;20503;-77
2023/05/30 08:51:53;;;;;;;10.10;4.57;;;20.20;98.30;;;;;;5071397;28;20063;-76
2023/05/30 08:54:25;;;;;;;9.88;4.85;;;20.40;98.20;;;;;;5074508;28;20021;-77
2023/05/30 08:57:09;;;;;;;12.77;5.10;;;20.40;97.10;;;;;;5074950;28;20362;-77
2023/05/30 08:59:35;;;;;;;12.95;5.03;;;20.50;97.10;;;;;;5074832;28;20102;-76
2023/05/30 09:02:02;;;;;;;13.52;5.20;;;20.60;96.60;;;;;;5073721;28;20059;-77
2023/05/30 09:04:29;;;;;;;10.52;4.93;;;20.50;97.00;;;;;;5072502;28;20043;-77
2023/05/30 09:06:57;;;;;;;14.90;5.07;;;20.80;97.40;;;;;;5056198;28;20533;-77
2023/05/30 09:09:23;;;;;;;14.45;5.00;;;20.90;95.80;;;;;;5070880;28;20043;-77
2023/05/30 09:11:51;;;;;;;12.25;4.90;;;20.90;95.90;;;;;;5074477;28;20020;-77
2023/05/30 09:14:16;;;;;;;10.93;4.75;;;21.20;96.20;;;;;;5073004;28;20324;-78
2023/05/30 09:16:42;;;;;;;9.02;5.00;;;21.40;95.20;;;;;;5074770;28;20792;-76
2023/05/30 09:19:08;;;;;;;13.05;4.95;;;21.50;94.40;;;;;;5070751;28;20044;-76
2023/05/30 09:21:33;;;;;;;10.80;4.85;;;21.60;94.00;;;;;;5072367;28;20046;-77
2023/05/30 09:24:04;;;;;;;12.82;4.75;;;21.40;93.90;;;;;;5059690;28;20107;-77
2023/05/30 09:26:30;;;;;;;11.57;5.10;;;21.50;93.80;;;;;;5056804;28;20033;-78
2023/05/30 09:28:56;;;;;;;15.48;5.07;;;21.50;93.30;;;;;;5066813;28;20066;-77
2023/05/30 09:31:22;;;;;;;10.77;5.00;;;21.60;93.40;;;;;;5074250;28;20435;-77
2023/05/30 09:33:52;;;;;;;12.85;5.40;;;21.60;94.00;;;;;;5072936;28;20032;-77
2023/05/30 09:36:23;;;;;;;11.13;5.17;;;21.60;92.10;;;;;;5072484;28;20031;-77
2023/05/30 09:39:05;;;;;;;11.52;5.30;;;21.70;92.90;;;;;;5069755;28;20032;-78
2023/05/30 09:41:31;;;;;;;10.75;4.93;;;21.50;92.20;;;;;;5071036;28;20131;-76
2023/05/30 09:43:58;;;;;;;12.57;5.25;;;21.60;92.30;;;;;;5070509;28;20086;-77
2023/05/30 09:46:28;;;;;;;12.95;5.22;;;21.70;92.00;;;;;;5071218;28;20025;-77
2023/05/30 09:48:55;;;;;;;11.70;5.10;;;21.90;92.10;;;;;;5069996;28;20503;-78
2023/05/30 09:51:22;;;;;;;11.43;4.57;;;21.90;92.30;;;;;;5069148;28;20059;-78
2023/05/30 09:54:14;;;;;;;10.68;4.60;;;22.30;92.10;;;;;;5071101;28;20085;-77
2023/05/30 09:56:40;;;;;;;12.45;4.85;;;22.80;90.80;;;;;;5068705;28;20443;-78
2023/05/30 09:59:08;;;;;;;14.05;4.75;;;22.60;88.90;;;;;;5069047;28;20044;-77
2023/05/30 10:01:39;;;;;;;9.35;5.00;;;22.70;90.30;;;;;;5070416;28;20029;-78
2023/05/30 10:04:14;;;;;;;13.68;4.75;;;22.80;89.60;;;;;;5070218;28;20041;-76
2023/05/30 10:06:41;;;;;;;10.38;4.75;;;22.50;90.00;;;;;;5070976;28;20038;-77
2023/05/30 10:09:09;;;;;;;10.60;4.82;;;22.70;89.60;;;;;;5068794;28;20039;-77
2023/05/30 10:11:36;;;;;;;12.32;4.50;;;22.60;86.20;;;;;;5070551;28;20036;-77
2023/05/30 10:14:02;;;;;;;10.52;4.70;;;22.80;87.90;;;;;;5069993;28;20028;-77
2023/05/30 10:16:30;;;;;;;10.80;4.95;;;23.00;87.00;;;;;;5070468;28;20476;-76
2023/05/30 10:18:58;;;;;;;8.38;4.47;;;23.30;85.90;;;;;;5068425;28;20040;-76
2023/05/30 10:21:25;;;;;;;16.20;5.05;;;23.10;85.10;;;;;;5070597;28;20024;-77
2023/05/30 10:23:53;;;;;;;12.65;5.03;;;23.10;87.40;;;;;;5070602;28;20116;-77
2023/05/30 10:26:22;;;;;;;8.15;4.80;;;23.40;84.60;;;;;;5068136;28;20052;-78
2023/05/30 10:28:49;;;;;;;12.50;5.25;;;23.60;88.40;;;;;;5070358;28;20621;-78
2023/05/30 10:31:15;;;;;;;10.63;5.10;;;23.60;80.90;;;;;;5069877;28;20028;-77
2023/05/30 10:33:43;;;;;;;10.07;5.15;;;23.60;82.30;;;;;;5070423;28;20032;-77
2023/05/30 10:36:09;;;;;;;10.27;4.95;;;23.70;77.70;;;;;;5068437;28;20029;-77
2023/05/30 10:38:46;;;;;;;10.63;4.90;;;23.70;78.80;;;;;;5070177;28;20032;-77
2023/05/30 10:41:37;;;;;;;11.68;4.72;;;23.80;79.00;;;;;;5069206;28;20029;-77
2023/05/30 10:44:27;;;;;;;9.73;4.70;;;23.70;79.10;;;;;;5069412;28;20111;-78
2023/05/30 10:47:14;;;;;;;8.77;4.38;;;23.90;78.00;;;;;;5050231;28;20032;-77
2023/05/30 10:49:40;;;;;;;8.73;4.20;;;24.10;76.50;;;;;;5049896;28;20021;-78
2023/05/30 10:52:09;;;;;;;9.25;4.63;;;24.30;75.90;;;;;;5049154;28;20036;-77
2023/05/30 10:54:36;;;;;;;10.75;4.75;;;24.10;75.60;;;;;;5051669;28;20454;-77
2023/05/30 10:57:27;;;;;;;11.98;4.25;;;23.80;74.30;;;;;;5069528;28;20435;-76
2023/05/30 11:00:09;;;;;;;8.13;4.30;;;24.00;79.00;;;;;;5069848;28;20024;-78
2023/05/30 11:02:36;;;;;;;12.05;5.30;;;24.80;78.70;;;;;;5068264;28;20580;-78
2023/05/30 11:05:10;;;;;;;12.43;4.80;;;24.70;75.00;;;;;;5069234;28;20020;-77
2023/05/30 11:07:42;;;;;;;12.43;4.95;;;24.30;76.40;;;;;;5067992;28;20041;-78
2023/05/30 11:10:11;;;;;;;7.88;4.38;;;24.20;76.80;;;;;;5068712;28;20036;-78
2023/05/30 11:12:48;;;;;;;10.95;4.65;;;24.00;78.80;;;;;;5067506;28;20060;-77
2023/05/30 11:15:17;;;;;;;8.48;4.72;;;24.20;75.50;;;;;;5068655;28;20060;-78
2023/05/30 11:17:44;;;;;;;8.60;4.53;;;24.60;75.50;;;;;;5069525;28;20032;-77
2023/05/30 11:20:14;;;;;;;11.18;4.45;;;24.70;74.70;;;;;;5059761;28;20112;-77
2023/05/30 11:23:00;;;;;;;10.40;4.78;;;24.60;73.80;;;;;;5064557;28;20787;-76
2023/05/30 11:25:27;;;;;;;10.00;4.75;;;24.40;75.30;;;;;;5041089;28;20190;-76
2023/05/30 11:28:06;;;;;;;10.05;4.45;;;24.20;77.20;;;;;;5049377;28;20052;-76
2023/05/30 11:30:38;;;;;;;10.40;5.13;;;24.20;78.00;;;;;;5066050;28;20029;-76
2023/05/30 11:33:14;;;;;;;16.73;9.27;;;24.40;75.80;;;;;;5051640;28;20044;-77
2023/05/30 11:35:48;;;;;;;7.85;4.63;;;24.80;74.60;;;;;;5053360;28;20056;-77
2023/05/30 11:38:19;;;;;;;10.77;4.75;;;24.90;71.10;;;;;;5065172;28;20119;-77
2023/05/30 11:40:45;;;;;;;8.90;4.80;;;24.90;71.30;;;;;;5067159;28;20112;-77
2023/05/30 11:43:15;;;;;;;10.77;4.88;;;24.50;73.70;;;;;;5064534;28;20540;-75
2023/05/30 11:45:42;;;;;;;8.85;4.40;;;24.40;75.90;;;;;;5063929;28;20056;-77
2023/05/30 11:48:11;;;;;;;10.60;4.97;;;24.50;73.60;;;;;;5050997;28;20128;-77
2023/05/30 11:50:44;;;;;;;12.40;4.85;;;24.60;75.70;;;;;;5068203;28;20039;-77
2023/05/30 11:53:17;;;;;;;13.95;4.10;;;25.20;75.30;;;;;;5062937;28;20388;-77
2023/05/30 11:55:46;;;;;;;21.63;8.02;;;25.30;72.70;;;;;;5060454;28;20052;-77
2023/05/30 11:58:17;;;;;;;11.98;4.78;;;25.70;72.90;;;;;;5063431;28;20039;-77
2023/05/30 12:00:43;;;;;;;10.23;4.40;;;26.00;72.00;;;;;;5064669;28;20115;-78
2023/05/30 12:03:16;;;;;;;9.77;4.93;;;25.40;70.40;;;;;;5056516;28;20094;-77
2023/05/30 12:05:46;;;;;;;14.95;4.78;;;24.90;70.00;;;;;;5057059;28;20032;-77
2023/05/30 12:08:18;;;;;;;;;;;24.90;75.40;;;;;;5055196;28;20067;-78
2023/05/30 12:10:44;;;;;;;12.38;4.47;;;25.40;75.50;;;;;;5062733;28;19909;-77
2023/05/30 12:13:10;;;;;;;10.02;4.25;;;25.80;71.00;;;;;;5061361;28;20021;-77
2023/05/30 12:15:36;;;;;;;14.18;4.50;;;25.70;69.80;;;;;;5062683;28;20094;-77
2023/05/30 12:18:02;;;;;;;7.70;4.03;;;25.10;66.50;;;;;;5059417;28;20499;-78
2023/05/30 12:20:28;;;;;;;15.30;4.40;;;24.70;69.40;;;;;;5065736;28;20028;-78
2023/05/30 12:22:54;;;;;;;10.98;5.38;;;25.10;71.10;;;;;;5061632;28;20107;-76
2023/05/30 12:25:27;;;;;;;9.13;3.80;;;25.30;66.60;;;;;;5059249;28;20406;-77
2023/05/30 12:27:56;;;;;;;13.75;4.72;;;25.40;66.30;;;;;;5065679;28;20041;-78
2023/05/30 12:30:22;;;;;;;8.68;4.20;;;26.00;66.00;;;;;;5066316;28;20060;-78
2023/05/30 12:32:48;;;;;;;7.70;3.95;;;26.00;64.60;;;;;;5055818;28;20478;-79
2023/05/30 12:35:15;;;;;;;16.58;4.35;;;25.80;62.80;;;;;;5059823;28;20393;-77
2023/05/30 12:37:41;;;;;;;13.88;4.20;;;25.40;65.90;;;;;;5067077;28;20066;-77
2023/05/30 12:40:08;;;;;;;7.15;4.22;;;25.40;65.30;;;;;;5058717;28;20036;-78
2023/05/30 12:42:37;;;;;;;8.57;4.00;;;25.50;65.20;;;;;;5059162;28;20090;-77